sensor_id;sensor_type;location;lat;lon;timestamp;P1;durP1;ratioP1;P2;durP2;ratioP2
5052;SDS011;2545;50.892;5.740;2023-06-10T00:01:07;11.07;;;7.93;;
5052;SDS011;2545;50.892;5.740;2023-06-10T00:03:32;16.33;;;8.60;;
5052;SDS011;2545;50.892;5.740;2023-06-10T00:05:57;9.93;;;8.90;;
5052;SDS011;2545;50.892;5.740;2023-06-10T00:08:23;13.73;;;8.97;;
5052;SDS011;2545;50.892;5.740;2023-06-10T00:10:49;14.43;;;9.40;;
5052;SDS011;2545;50.892;5.740;2023-06-10T00:13:14;11.27;;;8.20;;
5052;SDS011;2545;50.892;5.740;2023-06-10T00:15:41;12.97;;;8.93;;
5052;SDS011;2545;50.892;5.740;2023-06-10T00:18:06;17.03;;;8.80;;
5052;SDS011;2545;50.892;5.740;2023-06-10T00:20:34;10.03;;;9.00;;
5052;SDS011;2545;50.892;5.740;2023-06-10T00:23:02;10.23;;;8.60;;
5052;SDS011;2545;50.892;5.740;2023-06-10T00:25:28;11.90;;;9.00;;
5052;SDS011;2545;50.892;5.740;2023-06-10T00:27:53;13.50;;;9.20;;
5052;SDS011;2545;50.892;5.740;2023-06-10T00:30:19;13.30;;;8.03;;
5052;SDS011;2545;50.892;5.740;2023-06-10T00:32:44;12.40;;;8.90;;
5052;SDS011;2545;50.892;5.740;2023-06-10T00:35:09;15.43;;;8.80;;
5052;SDS011;2545;50.892;5.740;2023-06-10T00:37:35;17.37;;;8.60;;
5052;SDS011;2545;50.892;5.740;2023-06-10T00:40:02;12.73;;;9.80;;
5052;SDS011;2545;50.892;5.740;2023-06-10T00:42:28;15.20;;;9.30;;
5052;SDS011;2545;50.892;5.740;2023-06-10T00:44:54;11.40;;;9.20;;
5052;SDS011;2545;50.892;5.740;2023-06-10T00:47:20;13.40;;;9.00;;
5052;SDS011;2545;50.892;5.740;2023-06-10T00:49:46;16.57;;;9.80;;
5052;SDS011;2545;50.892;5.740;2023-06-10T00:52:12;14.23;;;9.20;;
5052;SDS011;2545;50.892;5.740;2023-06-10T00:54:39;22.37;;;10.10;;
5052;SDS011;2545;50.892;5.740;2023-06-10T00:57:05;11.50;;;8.83;;
5052;SDS011;2545;50.892;5.740;2023-06-10T00:59:31;13.23;;;9.70;;
5052;SDS011;2545;50.892;5.740;2023-06-10T01:01:57;10.83;;;8.20;;
5052;SDS011;2545;50.892;5.740;2023-06-10T01:04:22;16.37;;;9.97;;
5052;SDS011;2545;50.892;5.740;2023-06-10T01:09:54;18.50;;;9.60;;
5052;SDS011;2545;50.892;5.740;2023-06-10T01:14:54;16.07;;;9.77;;
5052;SDS011;2545;50.892;5.740;2023-06-10T01:17:20;14.90;;;9.37;;
5052;SDS011;2545;50.892;5.740;2023-06-10T01:19:52;14.37;;;8.53;;
5052;SDS011;2545;50.892;5.740;2023-06-10T01:22:20;15.03;;;10.60;;
5052;SDS011;2545;50.892;5.740;2023-06-10T01:24:45;13.27;;;9.63;;
5052;SDS011;2545;50.892;5.740;2023-06-10T01:27:15;13.10;;;9.63;;
5052;SDS011;2545;50.892;5.740;2023-06-10T01:29:45;12.33;;;9.30;;
5052;SDS011;2545;50.892;5.740;2023-06-10T01:32:28;12.30;;;9.33;;
5052;SDS011;2545;50.892;5.740;2023-06-10T01:34:59;10.43;;;9.17;;
5052;SDS011;2545;50.892;5.740;2023-06-10T01:37:25;14.10;;;9.70;;
5052;SDS011;2545;50.892;5.740;2023-06-10T01:39:51;12.57;;;9.63;;
5052;SDS011;2545;50.892;5.740;2023-06-10T01:42:19;16.10;;;9.73;;
5052;SDS011;2545;50.892;5.740;2023-06-10T01:44:45;13.30;;;10.10;;
5052;SDS011;2545;50.892;5.740;2023-06-10T01:47:11;14.63;;;9.27;;
5052;SDS011;2545;50.892;5.740;2023-06-10T01:49:36;14.50;;;9.63;;
5052;SDS011;2545;50.892;5.740;2023-06-10T01:52:02;12.83;;;9.20;;
5052;SDS011;2545;50.892;5.740;2023-06-10T01:54:27;15.50;;;9.33;;
5052;SDS011;2545;50.892;5.740;2023-06-10T01:56:53;19.50;;;10.30;;
5052;SDS011;2545;50.892;5.740;2023-06-10T01:59:18;14.37;;;10.13;;
5052;SDS011;2545;50.892;5.740;2023-06-10T02:01:43;16.07;;;9.57;;
5052;SDS011;2545;50.892;5.740;2023-06-10T02:04:09;12.70;;;9.50;;
5052;SDS011;2545;50.892;5.740;2023-06-10T02:06:34;12.97;;;9.80;;
5052;SDS011;2545;50.892;5.740;2023-06-10T02:09:00;14.30;;;9.90;;
5052;SDS011;2545;50.892;5.740;2023-06-10T02:11:25;12.53;;;9.60;;
5052;SDS011;2545;50.892;5.740;2023-06-10T02:13:51;16.00;;;9.80;;
5052;SDS011;2545;50.892;5.740;2023-06-10T02:16:17;13.17;;;9.83;;
5052;SDS011;2545;50.892;5.740;2023-06-10T02:18:43;19.90;;;9.67;;
5052;SDS011;2545;50.892;5.740;2023-06-10T02:21:09;15.17;;;9.53;;
5052;SDS011;2545;50.892;5.740;2023-06-10T02:23:34;22.27;;;9.50;;
5052;SDS011;2545;50.892;5.740;2023-06-10T02:26:00;14.57;;;10.30;;
5052;SDS011;2545;50.892;5.740;2023-06-10T02:28:25;10.23;;;9.13;;
5052;SDS011;2545;50.892;5.740;2023-06-10T02:30:51;23.07;;;10.13;;
5052;SDS011;2545;50.892;5.740;2023-06-10T02:33:16;11.07;;;9.73;;
5052;SDS011;2545;50.892;5.740;2023-06-10T02:35:42;16.60;;;10.70;;
5052;SDS011;2545;50.892;5.740;2023-06-10T02:38:08;14.43;;;10.20;;
5052;SDS011;2545;50.892;5.740;2023-06-10T02:40:33;11.43;;;9.87;;
5052;SDS011;2545;50.892;5.740;2023-06-10T02:42:58;13.30;;;9.50;;
5052;SDS011;2545;50.892;5.740;2023-06-10T02:45:24;13.13;;;9.27;;
5052;SDS011;2545;50.892;5.740;2023-06-10T02:47:50;11.60;;;9.87;;
5052;SDS011;2545;50.892;5.740;2023-06-10T02:50:15;12.57;;;9.73;;
5052;SDS011;2545;50.892;5.740;2023-06-10T02:52:41;15.30;;;10.90;;
5052;SDS011;2545;50.892;5.740;2023-06-10T02:55:06;20.17;;;10.50;;
5052;SDS011;2545;50.892;5.740;2023-06-10T02:57:32;13.10;;;10.03;;
5052;SDS011;2545;50.892;5.740;2023-06-10T02:59:57;11.80;;;10.30;;
5052;SDS011;2545;50.892;5.740;2023-06-10T03:02:23;12.23;;;9.73;;
5052;SDS011;2545;50.892;5.740;2023-06-10T03:04:54;12.83;;;10.40;;
5052;SDS011;2545;50.892;5.740;2023-06-10T03:07:20;12.90;;;10.63;;
5052;SDS011;2545;50.892;5.740;2023-06-10T03:09:46;16.40;;;11.60;;
5052;SDS011;2545;50.892;5.740;2023-06-10T03:12:11;12.60;;;10.67;;
5052;SDS011;2545;50.892;5.740;2023-06-10T03:14:36;12.33;;;10.60;;
5052;SDS011;2545;50.892;5.740;2023-06-10T03:17:03;15.93;;;10.87;;
5052;SDS011;2545;50.892;5.740;2023-06-10T03:19:29;14.67;;;10.80;;
5052;SDS011;2545;50.892;5.740;2023-06-10T03:22:11;15.07;;;11.63;;
5052;SDS011;2545;50.892;5.740;2023-06-10T03:24:38;17.23;;;10.80;;
5052;SDS011;2545;50.892;5.740;2023-06-10T03:27:07;14.40;;;10.57;;
5052;SDS011;2545;50.892;5.740;2023-06-10T03:29:33;17.13;;;11.83;;
5052;SDS011;2545;50.892;5.740;2023-06-10T03:31:58;15.00;;;11.67;;
5052;SDS011;2545;50.892;5.740;2023-06-10T03:34:24;15.43;;;10.03;;
5052;SDS011;2545;50.892;5.740;2023-06-10T03:36:49;13.33;;;11.20;;
5052;SDS011;2545;50.892;5.740;2023-06-10T03:39:15;20.03;;;11.60;;
5052;SDS011;2545;50.892;5.740;2023-06-10T03:41:40;13.20;;;11.30;;
5052;SDS011;2545;50.892;5.740;2023-06-10T03:44:06;15.93;;;11.03;;
5052;SDS011;2545;50.892;5.740;2023-06-10T03:46:32;14.70;;;10.83;;
5052;SDS011;2545;50.892;5.740;2023-06-10T03:48:57;14.27;;;11.30;;
5052;SDS011;2545;50.892;5.740;2023-06-10T03:51:25;18.43;;;11.40;;
5052;SDS011;2545;50.892;5.740;2023-06-10T03:53:53;16.63;;;11.10;;
5052;SDS011;2545;50.892;5.740;2023-06-10T03:56:18;21.43;;;12.60;;
5052;SDS011;2545;50.892;5.740;2023-06-10T03:58:44;13.90;;;11.37;;
5052;SDS011;2545;50.892;5.740;2023-06-10T04:01:09;13.77;;;11.13;;
5052;SDS011;2545;50.892;5.740;2023-06-10T04:03:35;18.47;;;12.20;;
5052;SDS011;2545;50.892;5.740;2023-06-10T04:06:01;19.10;;;10.90;;
5052;SDS011;2545;50.892;5.740;2023-06-10T04:08:27;23.67;;;12.00;;
5052;SDS011;2545;50.892;5.740;2023-06-10T04:10:53;16.40;;;10.67;;
5052;SDS011;2545;50.892;5.740;2023-06-10T04:13:18;13.63;;;10.50;;
5052;SDS011;2545;50.892;5.740;2023-06-10T04:15:44;16.07;;;10.90;;
5052;SDS011;2545;50.892;5.740;2023-06-10T04:18:10;13.80;;;11.00;;
5052;SDS011;2545;50.892;5.740;2023-06-10T04:20:35;17.87;;;12.50;;
5052;SDS011;2545;50.892;5.740;2023-06-10T04:23:00;16.03;;;11.70;;
5052;SDS011;2545;50.892;5.740;2023-06-10T04:25:26;14.00;;;11.60;;
5052;SDS011;2545;50.892;5.740;2023-06-10T04:27:52;16.17;;;11.13;;
5052;SDS011;2545;50.892;5.740;2023-06-10T04:30:17;12.80;;;10.70;;
5052;SDS011;2545;50.892;5.740;2023-06-10T04:32:43;12.90;;;10.63;;
5052;SDS011;2545;50.892;5.740;2023-06-10T04:35:11;14.03;;;10.90;;
5052;SDS011;2545;50.892;5.740;2023-06-10T04:37:36;12.80;;;10.17;;
5052;SDS011;2545;50.892;5.740;2023-06-10T04:40:02;14.07;;;9.87;;
5052;SDS011;2545;50.892;5.740;2023-06-10T04:42:28;14.53;;;10.37;;
5052;SDS011;2545;50.892;5.740;2023-06-10T04:44:53;13.47;;;10.77;;
5052;SDS011;2545;50.892;5.740;2023-06-10T04:47:18;12.40;;;11.10;;
5052;SDS011;2545;50.892;5.740;2023-06-10T04:49:44;16.73;;;10.87;;
5052;SDS011;2545;50.892;5.740;2023-06-10T04:52:09;19.13;;;11.73;;
5052;SDS011;2545;50.892;5.740;2023-06-10T04:54:35;15.83;;;11.20;;
5052;SDS011;2545;50.892;5.740;2023-06-10T04:57:00;18.90;;;11.10;;
5052;SDS011;2545;50.892;5.740;2023-06-10T04:59:25;12.53;;;9.80;;
5052;SDS011;2545;50.892;5.740;2023-06-10T05:01:51;15.40;;;11.80;;
5052;SDS011;2545;50.892;5.740;2023-06-10T05:04:16;17.40;;;11.27;;
5052;SDS011;2545;50.892;5.740;2023-06-10T05:06:41;19.27;;;10.67;;
5052;SDS011;2545;50.892;5.740;2023-06-10T05:09:07;16.30;;;10.77;;
5052;SDS011;2545;50.892;5.740;2023-06-10T05:11:32;12.73;;;10.93;;
5052;SDS011;2545;50.892;5.740;2023-06-10T05:13:58;19.60;;;11.40;;
5052;SDS011;2545;50.892;5.740;2023-06-10T05:16:23;13.37;;;9.87;;
5052;SDS011;2545;50.892;5.740;2023-06-10T05:18:48;15.27;;;11.00;;
5052;SDS011;2545;50.892;5.740;2023-06-10T05:21:15;15.10;;;10.60;;
5052;SDS011;2545;50.892;5.740;2023-06-10T05:23:41;15.07;;;10.40;;
5052;SDS011;2545;50.892;5.740;2023-06-10T05:26:06;15.13;;;10.70;;
5052;SDS011;2545;50.892;5.740;2023-06-10T05:28:32;17.17;;;10.40;;
5052;SDS011;2545;50.892;5.740;2023-06-10T05:30:57;18.53;;;10.83;;
5052;SDS011;2545;50.892;5.740;2023-06-10T05:33:22;12.33;;;10.23;;
5052;SDS011;2545;50.892;5.740;2023-06-10T05:35:47;14.27;;;10.30;;
5052;SDS011;2545;50.892;5.740;2023-06-10T05:38:13;15.70;;;10.00;;
5052;SDS011;2545;50.892;5.740;2023-06-10T05:40:38;14.90;;;10.00;;
5052;SDS011;2545;50.892;5.740;2023-06-10T05:43:03;13.07;;;10.30;;
5052;SDS011;2545;50.892;5.740;2023-06-10T05:45:29;10.43;;;8.87;;
5052;SDS011;2545;50.892;5.740;2023-06-10T05:47:54;12.30;;;10.00;;
5052;SDS011;2545;50.892;5.740;2023-06-10T05:50:20;13.97;;;10.13;;
5052;SDS011;2545;50.892;5.740;2023-06-10T05:52:45;19.97;;;11.70;;
5052;SDS011;2545;50.892;5.740;2023-06-10T05:55:11;15.70;;;9.90;;
5052;SDS011;2545;50.892;5.740;2023-06-10T05:57:36;14.73;;;9.83;;
5052;SDS011;2545;50.892;5.740;2023-06-10T06:00:01;21.93;;;10.27;;
5052;SDS011;2545;50.892;5.740;2023-06-10T06:02:27;21.63;;;10.50;;
5052;SDS011;2545;50.892;5.740;2023-06-10T06:04:52;13.33;;;9.70;;
5052;SDS011;2545;50.892;5.740;2023-06-10T06:07:18;16.43;;;9.70;;
5052;SDS011;2545;50.892;5.740;2023-06-10T06:09:45;11.40;;;9.57;;
5052;SDS011;2545;50.892;5.740;2023-06-10T06:12:11;13.73;;;8.90;;
5052;SDS011;2545;50.892;5.740;2023-06-10T06:14:37;13.73;;;10.23;;
5052;SDS011;2545;50.892;5.740;2023-06-10T06:17:06;13.30;;;10.00;;
5052;SDS011;2545;50.892;5.740;2023-06-10T06:19:32;13.43;;;9.77;;
5052;SDS011;2545;50.892;5.740;2023-06-10T06:21:58;17.30;;;10.30;;
5052;SDS011;2545;50.892;5.740;2023-06-10T06:24:23;17.73;;;10.67;;
5052;SDS011;2545;50.892;5.740;2023-06-10T06:26:48;14.67;;;9.77;;
5052;SDS011;2545;50.892;5.740;2023-06-10T06:29:14;23.97;;;9.80;;
5052;SDS011;2545;50.892;5.740;2023-06-10T06:31:39;12.70;;;9.10;;
5052;SDS011;2545;50.892;5.740;2023-06-10T06:34:05;19.13;;;9.13;;
5052;SDS011;2545;50.892;5.740;2023-06-10T06:36:30;17.90;;;9.20;;
5052;SDS011;2545;50.892;5.740;2023-06-10T06:38:55;13.13;;;9.57;;
5052;SDS011;2545;50.892;5.740;2023-06-10T06:41:20;13.83;;;9.80;;
5052;SDS011;2545;50.892;5.740;2023-06-10T06:43:47;11.80;;;9.03;;
5052;SDS011;2545;50.892;5.740;2023-06-10T06:46:12;12.70;;;9.57;;
5052;SDS011;2545;50.892;5.740;2023-06-10T06:48:38;14.60;;;8.20;;
5052;SDS011;2545;50.892;5.740;2023-06-10T06:51:03;10.80;;;9.20;;
5052;SDS011;2545;50.892;5.740;2023-06-10T06:53:28;11.40;;;8.07;;
5052;SDS011;2545;50.892;5.740;2023-06-10T06:55:54;14.73;;;8.40;;
5052;SDS011;2545;50.892;5.740;2023-06-10T06:58:19;10.50;;;8.70;;
5052;SDS011;2545;50.892;5.740;2023-06-10T07:00:44;16.13;;;7.97;;
5052;SDS011;2545;50.892;5.740;2023-06-10T07:03:10;15.77;;;8.43;;
5052;SDS011;2545;50.892;5.740;2023-06-10T07:05:35;9.43;;;8.07;;
5052;SDS011;2545;50.892;5.740;2023-06-10T07:08:00;12.30;;;8.33;;
5052;SDS011;2545;50.892;5.740;2023-06-10T07:10:26;11.23;;;7.73;;
5052;SDS011;2545;50.892;5.740;2023-06-10T07:12:52;10.13;;;8.20;;
5052;SDS011;2545;50.892;5.740;2023-06-10T07:15:17;11.80;;;7.50;;
5052;SDS011;2545;50.892;5.740;2023-06-10T07:17:43;12.97;;;7.33;;
5052;SDS011;2545;50.892;5.740;2023-06-10T07:20:09;9.93;;;7.50;;
5052;SDS011;2545;50.892;5.740;2023-06-10T07:22:34;10.73;;;8.50;;
5052;SDS011;2545;50.892;5.740;2023-06-10T07:25:00;8.53;;;7.73;;
5052;SDS011;2545;50.892;5.740;2023-06-10T07:27:26;13.90;;;7.50;;
5052;SDS011;2545;50.892;5.740;2023-06-10T07:29:51;14.17;;;8.00;;
5052;SDS011;2545;50.892;5.740;2023-06-10T07:32:16;9.77;;;7.77;;
5052;SDS011;2545;50.892;5.740;2023-06-10T07:34:42;9.57;;;7.40;;
5052;SDS011;2545;50.892;5.740;2023-06-10T07:37:08;13.67;;;8.70;;
5052;SDS011;2545;50.892;5.740;2023-06-10T07:39:33;11.37;;;7.87;;
5052;SDS011;2545;50.892;5.740;2023-06-10T07:41:59;14.00;;;7.70;;
5052;SDS011;2545;50.892;5.740;2023-06-10T07:44:25;8.57;;;7.57;;
5052;SDS011;2545;50.892;5.740;2023-06-10T07:46:50;10.10;;;7.50;;
5052;SDS011;2545;50.892;5.740;2023-06-10T07:49:16;8.90;;;7.27;;
5052;SDS011;2545;50.892;5.740;2023-06-10T07:51:41;9.83;;;8.03;;
5052;SDS011;2545;50.892;5.740;2023-06-10T07:54:07;29.13;;;8.13;;
5052;SDS011;2545;50.892;5.740;2023-06-10T07:56:33;10.87;;;7.13;;
5052;SDS011;2545;50.892;5.740;2023-06-10T07:58:58;7.97;;;6.90;;
5052;SDS011;2545;50.892;5.740;2023-06-10T08:01:23;9.10;;;7.47;;
5052;SDS011;2545;50.892;5.740;2023-06-10T08:03:49;9.50;;;8.10;;
5052;SDS011;2545;50.892;5.740;2023-06-10T08:06:15;9.00;;;6.80;;
5052;SDS011;2545;50.892;5.740;2023-06-10T08:08:42;9.37;;;7.50;;
5052;SDS011;2545;50.892;5.740;2023-06-10T08:11:08;14.53;;;7.33;;
5052;SDS011;2545;50.892;5.740;2023-06-10T08:13:35;12.10;;;7.93;;
5052;SDS011;2545;50.892;5.740;2023-06-10T08:16:01;15.73;;;7.30;;
5052;SDS011;2545;50.892;5.740;2023-06-10T08:18:26;13.30;;;7.90;;
5052;SDS011;2545;50.892;5.740;2023-06-10T08:20:51;14.40;;;7.40;;
5052;SDS011;2545;50.892;5.740;2023-06-10T08:23:17;9.37;;;7.87;;
5052;SDS011;2545;50.892;5.740;2023-06-10T08:25:42;12.30;;;7.70;;
5052;SDS011;2545;50.892;5.740;2023-06-10T08:28:07;12.33;;;7.37;;
5052;SDS011;2545;50.892;5.740;2023-06-10T08:30:32;13.23;;;7.70;;
5052;SDS011;2545;50.892;5.740;2023-06-10T08:32:58;10.53;;;7.03;;
5052;SDS011;2545;50.892;5.740;2023-06-10T08:35:24;16.07;;;7.27;;
5052;SDS011;2545;50.892;5.740;2023-06-10T08:37:49;10.87;;;7.07;;
5052;SDS011;2545;50.892;5.740;2023-06-10T08:40:15;10.20;;;8.70;;
5052;SDS011;2545;50.892;5.740;2023-06-10T08:42:45;13.07;;;8.47;;
5052;SDS011;2545;50.892;5.740;2023-06-10T08:45:18;10.53;;;8.10;;
5052;SDS011;2545;50.892;5.740;2023-06-10T08:47:46;13.00;;;7.73;;
5052;SDS011;2545;50.892;5.740;2023-06-10T08:50:16;13.60;;;6.97;;
5052;SDS011;2545;50.892;5.740;2023-06-10T08:52:44;10.77;;;7.87;;
5052;SDS011;2545;50.892;5.740;2023-06-10T08:55:27;11.60;;;8.77;;
5052;SDS011;2545;50.892;5.740;2023-06-10T08:57:57;14.60;;;8.00;;
5052;SDS011;2545;50.892;5.740;2023-06-10T09:00:24;12.53;;;7.70;;
5052;SDS011;2545;50.892;5.740;2023-06-10T09:02:50;11.57;;;7.83;;
5052;SDS011;2545;50.892;5.740;2023-06-10T09:05:16;11.17;;;7.13;;
5052;SDS011;2545;50.892;5.740;2023-06-10T09:07:42;15.60;;;7.83;;
5052;SDS011;2545;50.892;5.740;2023-06-10T09:10:09;16.30;;;7.50;;
5052;SDS011;2545;50.892;5.740;2023-06-10T09:12:36;13.53;;;8.20;;
5052;SDS011;2545;50.892;5.740;2023-06-10T09:15:04;8.90;;;7.67;;
5052;SDS011;2545;50.892;5.740;2023-06-10T09:17:30;8.20;;;7.37;;
5052;SDS011;2545;50.892;5.740;2023-06-10T09:19:56;15.30;;;7.77;;
5052;SDS011;2545;50.892;5.740;2023-06-10T09:22:22;10.77;;;8.00;;
5052;SDS011;2545;50.892;5.740;2023-06-10T09:24:48;8.53;;;7.30;;
5052;SDS011;2545;50.892;5.740;2023-06-10T09:27:14;9.63;;;6.87;;
5052;SDS011;2545;50.892;5.740;2023-06-10T09:32:12;7.83;;;6.60;;
5052;SDS011;2545;50.892;5.740;2023-06-10T09:34:37;8.10;;;6.20;;
5052;SDS011;2545;50.892;5.740;2023-06-10T09:37:03;10.80;;;6.30;;
5052;SDS011;2545;50.892;5.740;2023-06-10T09:39:29;12.83;;;7.80;;
5052;SDS011;2545;50.892;5.740;2023-06-10T09:41:54;10.33;;;7.20;;
5052;SDS011;2545;50.892;5.740;2023-06-10T09:44:20;10.33;;;7.00;;
5052;SDS011;2545;50.892;5.740;2023-06-10T09:46:47;16.03;;;7.47;;
5052;SDS011;2545;50.892;5.740;2023-06-10T09:49:14;10.00;;;6.77;;
5052;SDS011;2545;50.892;5.740;2023-06-10T09:51:53;8.60;;;6.90;;
5052;SDS011;2545;50.892;5.740;2023-06-10T09:54:19;9.20;;;7.07;;
5052;SDS011;2545;50.892;5.740;2023-06-10T09:56:52;13.17;;;6.60;;
5052;SDS011;2545;50.892;5.740;2023-06-10T09:59:29;8.43;;;6.87;;
5052;SDS011;2545;50.892;5.740;2023-06-10T10:01:59;15.63;;;7.50;;
5052;SDS011;2545;50.892;5.740;2023-06-10T10:04:25;12.53;;;7.03;;
5052;SDS011;2545;50.892;5.740;2023-06-10T10:06:51;7.93;;;7.13;;
5052;SDS011;2545;50.892;5.740;2023-06-10T10:09:17;11.83;;;7.17;;
5052;SDS011;2545;50.892;5.740;2023-06-10T10:11:42;9.10;;;6.70;;
5052;SDS011;2545;50.892;5.740;2023-06-10T10:14:09;9.13;;;6.70;;
5052;SDS011;2545;50.892;5.740;2023-06-10T10:16:37;8.47;;;6.73;;
5052;SDS011;2545;50.892;5.740;2023-06-10T10:21:58;8.27;;;6.73;;
5052;SDS011;2545;50.892;5.740;2023-06-10T10:24:40;7.57;;;6.10;;
5052;SDS011;2545;50.892;5.740;2023-06-10T10:27:31;9.23;;;6.67;;
5052;SDS011;2545;50.892;5.740;2023-06-10T10:30:00;10.57;;;6.83;;
5052;SDS011;2545;50.892;5.740;2023-06-10T10:32:32;8.90;;;6.70;;
5052;SDS011;2545;50.892;5.740;2023-06-10T10:37:33;9.73;;;6.40;;
5052;SDS011;2545;50.892;5.740;2023-06-10T10:40:00;8.40;;;6.63;;
5052;SDS011;2545;50.892;5.740;2023-06-10T10:42:28;7.63;;;5.93;;
5052;SDS011;2545;50.892;5.740;2023-06-10T10:44:54;10.10;;;6.07;;
5052;SDS011;2545;50.892;5.740;2023-06-10T10:47:21;9.53;;;5.80;;
5052;SDS011;2545;50.892;5.740;2023-06-10T10:49:48;5.82;;;5.32;;
5052;SDS011;2545;50.892;5.740;2023-06-10T10:52:19;10.15;;;5.68;;
5052;SDS011;2545;50.892;5.740;2023-06-10T10:54:46;6.57;;;5.13;;
5052;SDS011;2545;50.892;5.740;2023-06-10T10:57:12;5.70;;;5.20;;
5052;SDS011;2545;50.892;5.740;2023-06-10T11:02:16;6.97;;;4.50;;
5052;SDS011;2545;50.892;5.740;2023-06-10T11:04:46;9.48;;;4.43;;
5052;SDS011;2545;50.892;5.740;2023-06-10T11:07:12;6.28;;;4.47;;
5052;SDS011;2545;50.892;5.740;2023-06-10T11:10:00;7.70;;;4.53;;
5052;SDS011;2545;50.892;5.740;2023-06-10T11:15:11;6.75;;;4.45;;
5052;SDS011;2545;50.892;5.740;2023-06-10T11:18:29;6.65;;;4.10;;
5052;SDS011;2545;50.892;5.740;2023-06-10T11:20:45;5.28;;;4.13;;
5052;SDS011;2545;50.892;5.740;2023-06-10T11:28:41;7.10;;;4.63;;
5052;SDS011;2545;50.892;5.740;2023-06-10T11:31:32;8.05;;;3.75;;
5052;SDS011;2545;50.892;5.740;2023-06-10T11:33:58;4.43;;;4.03;;
5052;SDS011;2545;50.892;5.740;2023-06-10T11:36:25;5.95;;;4.47;;
5052;SDS011;2545;50.892;5.740;2023-06-10T11:39:10;7.03;;;4.50;;
5052;SDS011;2545;50.892;5.740;2023-06-10T11:41:37;4.05;;;3.75;;
5052;SDS011;2545;50.892;5.740;2023-06-10T11:44:05;5.80;;;3.92;;
5052;SDS011;2545;50.892;5.740;2023-06-10T11:46:36;5.10;;;3.88;;
5052;SDS011;2545;50.892;5.740;2023-06-10T11:49:02;5.47;;;4.18;;
5052;SDS011;2545;50.892;5.740;2023-06-10T11:51:29;4.60;;;4.18;;
5052;SDS011;2545;50.892;5.740;2023-06-10T11:53:57;6.25;;;4.10;;
5052;SDS011;2545;50.892;5.740;2023-06-10T11:56:23;5.40;;;4.55;;
5052;SDS011;2545;50.892;5.740;2023-06-10T12:01:20;5.97;;;4.38;;
5052;SDS011;2545;50.892;5.740;2023-06-10T12:03:59;6.38;;;4.40;;
5052;SDS011;2545;50.892;5.740;2023-06-10T12:06:27;4.40;;;4.03;;
5052;SDS011;2545;50.892;5.740;2023-06-10T12:09:02;4.10;;;3.72;;
5052;SDS011;2545;50.892;5.740;2023-06-10T12:11:27;6.82;;;4.03;;
5052;SDS011;2545;50.892;5.740;2023-06-10T12:13:53;7.28;;;4.18;;
5052;SDS011;2545;50.892;5.740;2023-06-10T12:16:19;6.28;;;3.72;;
5052;SDS011;2545;50.892;5.740;2023-06-10T12:18:47;6.47;;;3.90;;
5052;SDS011;2545;50.892;5.740;2023-06-10T12:21:15;6.65;;;4.53;;
5052;SDS011;2545;50.892;5.740;2023-06-10T12:24:25;8.50;;;4.07;;
5052;SDS011;2545;50.892;5.740;2023-06-10T12:26:36;4.47;;;3.72;;
5052;SDS011;2545;50.892;5.740;2023-06-10T12:29:16;5.90;;;3.90;;
5052;SDS011;2545;50.892;5.740;2023-06-10T12:31:53;3.92;;;3.63;;
5052;SDS011;2545;50.892;5.740;2023-06-10T12:34:38;4.20;;;3.80;;
5052;SDS011;2545;50.892;5.740;2023-06-10T12:37:05;4.13;;;3.78;;
5052;SDS011;2545;50.892;5.740;2023-06-10T12:39:38;5.18;;;3.88;;
5052;SDS011;2545;50.892;5.740;2023-06-10T12:42:04;4.47;;;4.07;;
5052;SDS011;2545;50.892;5.740;2023-06-10T12:44:31;6.30;;;4.13;;
5052;SDS011;2545;50.892;5.740;2023-06-10T12:46:59;5.35;;;3.92;;
5052;SDS011;2545;50.892;5.740;2023-06-10T12:49:25;3.83;;;3.50;;
5052;SDS011;2545;50.892;5.740;2023-06-10T12:51:51;4.07;;;3.67;;
5052;SDS011;2545;50.892;5.740;2023-06-10T12:54:17;13.18;;;3.70;;
5052;SDS011;2545;50.892;5.740;2023-06-10T12:56:42;4.10;;;3.80;;
5052;SDS011;2545;50.892;5.740;2023-06-10T12:59:08;6.80;;;3.60;;
5052;SDS011;2545;50.892;5.740;2023-06-10T13:01:33;6.18;;;3.88;;
5052;SDS011;2545;50.892;5.740;2023-06-10T13:03:59;6.78;;;4.20;;
5052;SDS011;2545;50.892;5.740;2023-06-10T13:06:24;4.75;;;4.32;;
5052;SDS011;2545;50.892;5.740;2023-06-10T13:08:50;4.90;;;4.00;;
5052;SDS011;2545;50.892;5.740;2023-06-10T13:11:16;5.38;;;4.15;;
5052;SDS011;2545;50.892;5.740;2023-06-10T13:13:41;5.43;;;3.97;;
5052;SDS011;2545;50.892;5.740;2023-06-10T13:16:07;19.20;;;4.72;;
5052;SDS011;2545;50.892;5.740;2023-06-10T13:18:33;7.53;;;4.53;;
5052;SDS011;2545;50.892;5.740;2023-06-10T13:21:02;5.03;;;4.45;;
5052;SDS011;2545;50.892;5.740;2023-06-10T13:23:28;7.30;;;4.68;;
5052;SDS011;2545;50.892;5.740;2023-06-10T13:25:53;6.55;;;5.28;;
5052;SDS011;2545;50.892;5.740;2023-06-10T13:28:19;6.95;;;4.78;;
5052;SDS011;2545;50.892;5.740;2023-06-10T13:30:44;6.57;;;4.82;;
5052;SDS011;2545;50.892;5.740;2023-06-10T13:33:10;5.40;;;4.90;;
5052;SDS011;2545;50.892;5.740;2023-06-10T13:35:35;8.15;;;4.68;;
5052;SDS011;2545;50.892;5.740;2023-06-10T13:38:01;5.65;;;5.07;;
5052;SDS011;2545;50.892;5.740;2023-06-10T13:40:26;5.93;;;5.32;;
5052;SDS011;2545;50.892;5.740;2023-06-10T13:42:51;7.30;;;5.57;;
5052;SDS011;2545;50.892;5.740;2023-06-10T13:45:19;7.82;;;5.05;;
5052;SDS011;2545;50.892;5.740;2023-06-10T13:47:44;5.65;;;5.10;;
5052;SDS011;2545;50.892;5.740;2023-06-10T13:50:10;8.82;;;5.20;;
5052;SDS011;2545;50.892;5.740;2023-06-10T13:52:35;9.63;;;5.57;;
5052;SDS011;2545;50.892;5.740;2023-06-10T13:55:00;7.82;;;4.63;;
5052;SDS011;2545;50.892;5.740;2023-06-10T13:57:26;5.60;;;4.75;;
5052;SDS011;2545;50.892;5.740;2023-06-10T13:59:51;4.45;;;4.05;;
5052;SDS011;2545;50.892;5.740;2023-06-10T14:02:16;8.40;;;4.80;;
5052;SDS011;2545;50.892;5.740;2023-06-10T14:04:42;4.43;;;3.90;;
5052;SDS011;2545;50.892;5.740;2023-06-10T14:07:07;6.82;;;3.70;;
5052;SDS011;2545;50.892;5.740;2023-06-10T14:09:32;4.18;;;3.88;;
5052;SDS011;2545;50.892;5.740;2023-06-10T14:11:58;4.18;;;3.80;;
5052;SDS011;2545;50.892;5.740;2023-06-10T14:14:23;4.75;;;4.00;;
5052;SDS011;2545;50.892;5.740;2023-06-10T14:16:49;5.40;;;4.40;;
5052;SDS011;2545;50.892;5.740;2023-06-10T14:19:14;4.78;;;3.75;;
5052;SDS011;2545;50.892;5.740;2023-06-10T14:21:39;4.50;;;4.10;;
5052;SDS011;2545;50.892;5.740;2023-06-10T14:24:05;3.70;;;3.35;;
5052;SDS011;2545;50.892;5.740;2023-06-10T14:26:30;4.10;;;3.30;;
5052;SDS011;2545;50.892;5.740;2023-06-10T14:28:57;8.75;;;4.25;;
5052;SDS011;2545;50.892;5.740;2023-06-10T14:31:22;4.22;;;3.78;;
5052;SDS011;2545;50.892;5.740;2023-06-10T14:33:48;4.70;;;4.25;;
5052;SDS011;2545;50.892;5.740;2023-06-10T14:36:13;4.13;;;3.72;;
5052;SDS011;2545;50.892;5.740;2023-06-10T14:38:39;4.18;;;3.78;;
5052;SDS011;2545;50.892;5.740;2023-06-10T14:41:04;5.45;;;4.05;;
5052;SDS011;2545;50.892;5.740;2023-06-10T14:43:29;3.90;;;3.63;;
5052;SDS011;2545;50.892;5.740;2023-06-10T14:45:55;3.65;;;3.45;;
5052;SDS011;2545;50.892;5.740;2023-06-10T14:48:21;3.97;;;3.58;;
5052;SDS011;2545;50.892;5.740;2023-06-10T14:50:46;3.42;;;3.10;;
5052;SDS011;2545;50.892;5.740;2023-06-10T14:53:15;7.05;;;3.33;;
5052;SDS011;2545;50.892;5.740;2023-06-10T14:55:43;10.80;;;3.50;;
5052;SDS011;2545;50.892;5.740;2023-06-10T14:58:09;4.68;;;3.22;;
5052;SDS011;2545;50.892;5.740;2023-06-10T15:00:34;3.08;;;2.88;;
5052;SDS011;2545;50.892;5.740;2023-06-10T15:03:00;7.55;;;3.47;;
5052;SDS011;2545;50.892;5.740;2023-06-10T15:05:25;6.68;;;3.33;;
5052;SDS011;2545;50.892;5.740;2023-06-10T15:07:50;6.95;;;3.50;;
5052;SDS011;2545;50.892;5.740;2023-06-10T15:10:16;10.52;;;2.75;;
5052;SDS011;2545;50.892;5.740;2023-06-10T15:12:42;3.28;;;3.08;;
5052;SDS011;2545;50.892;5.740;2023-06-10T15:15:07;5.47;;;3.13;;
5052;SDS011;2545;50.892;5.740;2023-06-10T15:17:32;4.25;;;3.55;;
5052;SDS011;2545;50.892;5.740;2023-06-10T15:19:58;3.78;;;3.10;;
5052;SDS011;2545;50.892;5.740;2023-06-10T15:22:23;3.00;;;2.75;;
5052;SDS011;2545;50.892;5.740;2023-06-10T15:24:48;3.65;;;3.08;;
5052;SDS011;2545;50.892;5.740;2023-06-10T15:27:14;3.65;;;2.88;;